createdAt,value
2022-09-09T00:00:01.655Z,994.13
2022-09-09T00:05:01.588Z,994.08
2022-09-09T00:10:02.093Z,993.97
2022-09-09T00:15:01.650Z,993.97
2022-09-09T00:20:01.603Z,993.95
2022-09-09T00:25:01.191Z,993.94
2022-09-09T00:30:01.879Z,993.89
2022-09-09T00:35:01.428Z,993.88
2022-09-09T00:40:01.336Z,993.88
2022-09-09T00:45:01.611Z,993.84
2022-09-09T00:50:01.580Z,993.9
2022-09-09T00:55:01.221Z,993.95
2022-09-09T01:00:02.021Z,993.98
2022-09-09T01:05:01.996Z,994.04
2022-09-09T01:10:01.932Z,993.99
2022-09-09T01:15:01.643Z,993.91
2022-09-09T01:20:02.023Z,993.91
2022-09-09T01:25:02.020Z,993.93
2022-09-09T01:30:02.020Z,993.96
2022-09-09T01:35:01.279Z,993.9
2022-09-09T01:40:02.279Z,993.97
2022-09-09T01:45:01.275Z,993.92
2022-09-09T01:50:01.733Z,993.88
2022-09-09T01:55:01.215Z,993.91
2022-09-09T02:00:02.027Z,993.92
2022-09-09T02:05:01.873Z,993.99
2022-09-09T02:10:01.244Z,993.97
2022-09-09T02:15:01.707Z,993.94
2022-09-09T02:20:01.701Z,993.9
2022-09-09T02:25:02.151Z,993.94
2022-09-09T02:30:01.879Z,993.89
2022-09-09T02:35:02.031Z,993.98
2022-09-09T02:40:01.841Z,993.87
2022-09-09T02:45:01.999Z,993.83
2022-09-09T02:50:01.699Z,993.71
2022-09-09T02:55:01.170Z,993.69
2022-09-09T03:00:01.330Z,993.71
2022-09-09T03:05:02.078Z,993.7
2022-09-09T03:10:01.900Z,993.68
2022-09-09T03:15:01.229Z,993.6
2022-09-09T03:20:01.663Z,993.64
2022-09-09T03:25:01.199Z,993.63
2022-09-09T03:30:01.582Z,993.63
2022-09-09T03:35:01.603Z,993.74
2022-09-09T03:40:01.310Z,993.69
2022-09-09T03:45:01.729Z,993.73
2022-09-09T03:50:01.473Z,993.77
2022-09-09T03:55:02.096Z,993.68
2022-09-09T04:00:01.435Z,993.65
2022-09-09T04:05:01.410Z,993.61
2022-09-09T04:10:01.619Z,993.62
2022-09-09T04:15:01.989Z,993.63
2022-09-09T04:20:01.335Z,993.8
2022-09-09T04:25:01.311Z,993.81
2022-09-09T04:30:01.864Z,993.8
2022-09-09T04:35:02.108Z,993.84
2022-09-09T04:40:01.978Z,993.77
2022-09-09T04:45:01.800Z,993.8
2022-09-09T04:50:01.198Z,993.86
2022-09-09T04:55:01.989Z,993.95
2022-09-09T05:00:01.421Z,993.98
2022-09-09T05:05:01.456Z,993.86
2022-09-09T05:10:01.507Z,993.88
2022-09-09T05:15:01.639Z,993.87
2022-09-09T05:20:01.482Z,993.85
2022-09-09T05:25:01.327Z,993.89
2022-09-09T05:30:01.550Z,993.95
2022-09-09T05:35:01.661Z,993.89
2022-09-09T05:40:01.882Z,993.93
2022-09-09T05:45:01.859Z,993.86
2022-09-09T05:50:01.368Z,993.85
2022-09-09T05:55:01.381Z,993.84
2022-09-09T06:00:01.496Z,993.84
2022-09-09T06:05:01.774Z,993.82
2022-09-09T06:10:01.396Z,993.84
2022-09-09T06:15:01.406Z,993.87
2022-09-09T06:20:01.693Z,993.83
2022-09-09T06:25:01.303Z,993.92
2022-09-09T06:30:01.810Z,993.89
2022-09-09T06:35:02.106Z,993.85
2022-09-09T06:40:01.252Z,993.85
2022-09-09T06:45:01.321Z,993.83
2022-09-09T06:50:02.260Z,993.8
2022-09-09T06:55:02.134Z,993.79
2022-09-09T07:00:01.630Z,993.76
2022-09-09T07:05:02.099Z,993.79
2022-09-09T07:10:01.489Z,993.81
2022-09-09T07:15:01.214Z,993.87
2022-09-09T07:20:01.987Z,993.79
2022-09-09T07:25:01.289Z,993.81
2022-09-09T07:30:02.072Z,993.91
2022-09-09T07:35:02.180Z,993.99
2022-09-09T07:40:02.093Z,994.14
2022-09-09T07:45:02.006Z,994.27
2022-09-09T07:50:01.407Z,994.3
2022-09-09T07:55:01.890Z,994.31
2022-09-09T08:00:01.928Z,994.38
2022-09-09T08:05:01.389Z,994.36
2022-09-09T08:10:01.668Z,994.36
2022-09-09T08:15:01.952Z,994.3
2022-09-09T08:20:01.854Z,994.32
2022-09-09T08:25:01.645Z,994.3
2022-09-09T08:30:01.925Z,994.33
2022-09-09T08:35:02.131Z,994.47
2022-09-09T08:40:01.747Z,994.35
2022-09-09T08:45:01.568Z,994.31
2022-09-09T08:50:02.124Z,994.32
2022-09-09T08:55:01.421Z,994.36
2022-09-09T09:00:02.207Z,994.4
2022-09-09T09:05:01.957Z,994.4
2022-09-09T09:10:01.901Z,994.43
2022-09-09T09:15:01.305Z,994.58
2022-09-09T09:20:01.920Z,994.51
2022-09-09T09:25:01.895Z,994.48
2022-09-09T09:30:28.559Z,994.6
2022-09-09T09:35:02.085Z,994.61
2022-09-09T09:40:06.873Z,994.63
2022-09-09T09:45:01.821Z,994.53
2022-09-09T09:50:01.912Z,994.59
2022-09-09T09:55:07.275Z,994.65
2022-09-09T10:00:01.772Z,994.62
2022-09-09T10:05:01.847Z,994.63
2022-09-09T10:10:01.692Z,994.58
2022-09-09T10:15:02.071Z,994.64
2022-09-09T10:20:01.539Z,994.52
2022-09-09T10:25:02.339Z,994.54
2022-09-09T10:30:01.575Z,994.65
2022-09-09T10:35:02.027Z,994.46
2022-09-09T10:40:01.460Z,994.47
2022-09-09T10:45:02.164Z,994.47
2022-09-09T10:50:01.535Z,994.44
2022-09-09T10:55:01.403Z,994.42
2022-09-09T11:00:02.131Z,994.44
2022-09-09T11:05:01.798Z,994.4
2022-09-09T11:10:01.520Z,994.36
2022-09-09T11:15:01.852Z,994.36
2022-09-09T11:20:01.624Z,994.22
2022-09-09T11:25:01.833Z,994.19
2022-09-09T11:30:01.459Z,994.17
2022-09-09T11:35:01.876Z,994.2
2022-09-09T11:40:01.936Z,994.15
2022-09-09T11:45:01.622Z,994.1
2022-09-09T11:50:01.216Z,994.12
2022-09-09T11:55:01.539Z,994.13
2022-09-09T12:00:01.331Z,994.06
2022-09-09T12:05:01.687Z,994.1
2022-09-09T12:10:01.546Z,994.02
2022-09-09T12:15:01.824Z,994.01
2022-09-09T12:20:01.876Z,994.09
2022-09-09T12:25:01.232Z,994.12
2022-09-09T12:30:01.697Z,994.11
2022-09-09T12:35:01.652Z,994.11
2022-09-09T12:40:01.222Z,994.11
2022-09-09T12:45:01.789Z,994.02
2022-09-09T12:50:02.115Z,993.99
2022-09-09T12:55:01.769Z,993.95
2022-09-09T13:00:01.425Z,993.98
2022-09-09T13:05:01.410Z,993.94
2022-09-09T13:10:01.675Z,993.93
2022-09-09T13:15:01.428Z,993.93
2022-09-09T13:20:02.140Z,993.89
2022-09-09T13:25:01.589Z,994
2022-09-09T13:30:01.894Z,993.89
2022-09-09T13:35:01.710Z,993.84
2022-09-09T13:40:01.346Z,993.81
2022-09-09T13:45:01.699Z,993.78
2022-09-09T13:50:01.655Z,993.77
2022-09-09T13:55:01.499Z,993.77
2022-09-09T14:00:05.050Z,993.71
2022-09-09T14:05:01.407Z,993.64
2022-09-09T14:10:01.506Z,993.63
2022-09-09T14:15:01.327Z,993.62
2022-09-09T14:20:01.911Z,993.72
2022-09-09T14:25:01.643Z,993.6
2022-09-09T14:30:01.918Z,993.67
2022-09-09T14:35:01.739Z,993.65
2022-09-09T14:40:01.517Z,993.67
2022-09-09T14:45:01.566Z,993.69
2022-09-09T14:50:01.939Z,993.68
2022-09-09T14:55:01.441Z,993.7
2022-09-09T15:00:01.221Z,993.78
2022-09-09T15:05:01.485Z,993.8
2022-09-09T15:10:01.588Z,993.88
2022-09-09T15:15:01.627Z,993.75
2022-09-09T15:20:01.329Z,993.86
2022-09-09T15:25:02.128Z,993.88
2022-09-09T15:30:01.773Z,993.96
2022-09-09T15:35:02.144Z,994.02
2022-09-09T15:40:01.491Z,993.96
2022-09-09T15:45:02.251Z,993.95
2022-09-09T15:50:01.600Z,993.94
2022-09-09T15:55:01.249Z,994.15
2022-09-09T16:00:01.215Z,994.08
2022-09-09T16:05:02.078Z,994.11
2022-09-09T16:10:01.470Z,994.12
2022-09-09T16:15:01.956Z,994.09
2022-09-09T16:20:01.244Z,994.17
2022-09-09T16:25:02.085Z,994.19
2022-09-09T16:30:01.793Z,994.16
2022-09-09T16:35:01.671Z,994.16
2022-09-09T16:40:01.296Z,994.15
2022-09-09T16:45:01.841Z,994.11
2022-09-09T16:50:01.196Z,994.12
2022-09-09T16:55:01.478Z,994.24
2022-09-09T17:00:01.963Z,994.29
2022-09-09T17:05:01.414Z,994.33
2022-09-09T17:10:01.318Z,994.47
2022-09-09T17:15:01.647Z,994.54
2022-09-09T17:20:01.215Z,994.61
2022-09-09T17:25:01.624Z,994.66
2022-09-09T17:30:01.888Z,994.74
2022-09-09T17:35:01.718Z,994.7
2022-09-09T17:40:01.397Z,994.73
2022-09-09T17:45:01.172Z,994.84
2022-09-09T17:50:01.788Z,994.93
2022-09-09T17:55:01.670Z,995.02
2022-09-09T18:00:01.530Z,995.03
2022-09-09T18:05:01.231Z,995.07
2022-09-09T18:10:02.018Z,994.97
2022-09-09T18:15:04.097Z,994.97
2022-09-09T18:20:01.367Z,995.08
2022-09-09T18:25:01.314Z,995.15
2022-09-09T18:30:01.240Z,995.09
2022-09-09T18:35:01.914Z,995.1
2022-09-09T18:40:02.090Z,995.08
2022-09-09T18:45:01.847Z,995.14
2022-09-09T18:50:01.765Z,995.14
2022-09-09T19:00:01.907Z,995.11
2022-09-09T19:05:01.341Z,995.16
2022-09-09T19:10:01.572Z,995.17
2022-09-09T19:15:01.172Z,995.27
2022-09-09T19:20:01.907Z,995.24
2022-09-09T19:25:01.902Z,995.25
2022-09-09T19:30:01.560Z,995.13
2022-09-09T19:35:01.512Z,995.28
2022-09-09T19:40:02.007Z,995.34
2022-09-09T19:45:02.034Z,995.4
2022-09-09T19:50:01.932Z,995.47
2022-09-09T19:55:01.845Z,995.58
2022-09-09T20:00:01.835Z,995.71
2022-09-09T20:05:01.432Z,995.75
2022-09-09T20:10:01.535Z,995.79
2022-09-09T20:15:01.548Z,995.82
2022-09-09T20:20:01.341Z,995.83
2022-09-09T20:25:02.009Z,995.83
2022-09-09T20:30:01.957Z,995.81
2022-09-09T20:35:01.602Z,995.82
2022-09-09T20:40:01.472Z,995.89
2022-09-09T20:45:01.710Z,995.91
2022-09-09T20:50:01.875Z,995.9
2022-09-09T20:55:01.176Z,995.92
2022-09-09T21:00:01.897Z,995.89
2022-09-09T21:05:01.660Z,995.94
2022-09-09T21:10:01.421Z,995.89
2022-09-09T21:15:01.785Z,995.84
2022-09-09T21:20:01.687Z,995.8
2022-09-09T21:25:01.640Z,995.69
2022-09-09T21:30:01.207Z,995.67
2022-09-09T21:35:01.714Z,995.68
2022-09-09T21:40:01.783Z,995.72
2022-09-09T21:45:01.380Z,995.74
2022-09-09T21:50:01.321Z,995.8
2022-09-09T21:55:01.327Z,995.81
2022-09-09T22:00:02.244Z,995.75
2022-09-09T22:05:01.923Z,995.82
2022-09-09T22:10:01.161Z,995.78
2022-09-09T22:15:02.066Z,995.73
2022-09-09T22:20:02.020Z,995.74
2022-09-09T22:25:02.166Z,995.77
2022-09-09T22:30:01.482Z,995.79
2022-09-09T22:35:01.937Z,995.81
2022-09-09T22:40:02.010Z,995.8
2022-09-09T22:45:01.176Z,995.83
2022-09-09T22:50:01.588Z,995.74
2022-09-09T22:55:01.647Z,995.68
2022-09-09T23:00:01.547Z,995.73
2022-09-09T23:05:01.452Z,995.67
2022-09-09T23:10:01.281Z,995.61
2022-09-09T23:15:02.143Z,995.63
2022-09-09T23:20:01.396Z,995.59
2022-09-09T23:25:01.827Z,995.56
2022-09-09T23:30:01.769Z,995.59
2022-09-09T23:35:01.926Z,995.65
2022-09-09T23:40:01.650Z,995.72
2022-09-09T23:45:01.448Z,995.7
2022-09-09T23:50:02.088Z,995.64
2022-09-09T23:55:01.328Z,995.67
